Time;durP1;ratioP1;P1;durP2;ratioP2;P2;SDS_P1;SDS_P2;PMS_P1;PMS_P2;Temp;Humidity;BMP_temperature;BMP_pressure;BME280_temperature;BME280_humidity;BME280_pressure;Samples;Min_cycle;Max_cycle;Signal;HPM_P1;HPM_P2
2021/12/08 00:00:53;;;;;;;62.80;31.33;;;;;;;1.60;90.06;100461.19;5041452;28;20190;-78
2021/12/08 00:03:19;;;;;;;63.90;32.07;;;;;;;1.59;90.73;100454.41;5045476;28;20273;-78
2021/12/08 00:05:45;;;;;;;67.80;32.30;;;;;;;1.61;90.20;100457.88;5033270;28;20730;-78
2021/12/08 00:08:14;;;;;;;62.30;31.97;;;;;;;1.60;90.86;100446.06;5045159;28;20217;-78
2021/12/08 00:13:31;;;;;;;68.07;33.13;;;;;;;1.61;91.15;100425.06;5050635;28;20217;-79
2021/12/08 00:16:00;;;;;;;69.20;32.00;;;;;;;1.62;90.38;100420.91;5052171;28;20699;-77
2021/12/08 00:18:32;;;;;;;65.43;31.43;;;;;;;1.61;90.70;100412.47;5050471;28;20186;-79
2021/12/08 00:21:00;;;;;;;63.53;32.40;;;;;;;1.66;91.21;100412.69;5052395;28;20197;-78
2021/12/08 00:23:26;;;;;;;69.87;33.47;;;;;;;1.62;91.66;100393.16;5052384;28;20579;-78
2021/12/08 00:25:53;;;;;;;64.27;30.07;;;;;;;1.61;90.83;100378.81;5035971;28;20206;-77
2021/12/08 00:28:19;;;;;;;61.83;32.50;;;;;;;1.62;91.72;100370.44;5035038;28;20235;-78
2021/12/08 00:30:50;;;;;;;61.23;31.73;;;;;;;1.64;91.30;100368.84;5021894;28;20204;-77
2021/12/08 00:33:16;;;;;;;66.90;32.60;;;;;;;1.65;90.94;100350.44;5038540;28;20194;-77
2021/12/08 00:35:45;;;;;;;60.00;30.97;;;;;;;1.66;90.68;100337.00;5033242;28;20186;-77
2021/12/08 00:38:10;;;;;;;63.03;32.50;;;;;;;1.65;91.30;100325.19;5033310;28;20186;-79
2021/12/08 00:40:36;;;;;;;58.40;30.67;;;;;;;1.65;90.76;100295.78;5032521;28;20261;-77
2021/12/08 00:43:03;;;;;;;63.77;32.43;;;;;;;1.61;91.05;100283.81;5032119;28;20237;-77
2021/12/08 00:45:29;;;;;;;67.47;34.13;;;;;;;1.63;91.62;100271.28;5046001;28;20244;-77
2021/12/08 00:47:56;;;;;;;62.87;30.50;;;;;;;1.57;91.23;100281.97;5032106;28;20187;-78
2021/12/08 00:50:25;;;;;;;62.80;31.03;;;;;;;1.62;91.15;100289.72;5030905;28;20197;-77
2021/12/08 00:52:51;;;;;;;63.70;31.93;;;;;;;1.63;91.68;100301.53;5032791;28;20745;-78
2021/12/08 00:55:17;;;;;;;64.53;31.70;;;;;;;1.58;90.56;100306.41;5052855;28;20217;-78
2021/12/08 00:57:42;;;;;;;63.73;31.77;;;;;;;1.59;91.49;100300.53;5053096;28;20558;-78
2021/12/08 01:00:18;;;;;;;64.83;30.63;;;;;;;1.62;91.75;100317.47;5051271;28;20170;-77
2021/12/08 01:02:44;;;;;;;60.63;31.27;;;;;;;1.62;91.69;100317.47;5051882;28;20209;-77
2021/12/08 01:05:13;;;;;;;64.97;31.33;;;;;;;1.67;91.61;100321.94;5053369;28;20259;-77
2021/12/08 01:07:38;;;;;;;55.53;28.83;;;;;;;1.67;91.63;100313.50;5052815;28;20197;-77
2021/12/08 01:10:08;;;;;;;60.27;30.60;;;;;;;1.66;91.56;100311.78;5052652;28;20584;-78
2021/12/08 01:12:33;;;;;;;63.87;30.80;;;;;;;1.68;90.78;100312.69;5052357;28;20262;-77
2021/12/08 01:14:59;;;;;;;58.67;31.47;;;;;;;1.73;91.28;100323.88;5038198;28;20194;-77
2021/12/08 01:17:24;;;;;;;60.30;30.33;;;;;;;1.71;90.57;100323.81;5033901;28;20190;-77
2021/12/08 01:19:49;;;;;;;65.83;32.27;;;;;;;1.72;91.66;100319.63;5032821;28;20203;-78
2021/12/08 01:22:14;;;;;;;64.57;30.33;;;;;;;1.73;91.44;100316.28;5031832;28;20697;-77
2021/12/08 01:24:40;;;;;;;59.40;30.30;;;;;;;1.70;91.04;100311.97;5030238;28;20662;-77
2021/12/08 01:27:05;;;;;;;59.03;28.77;;;;;;;1.73;91.21;100312.13;5047737;28;20201;-77
2021/12/08 01:29:30;;;;;;;62.93;29.70;;;;;;;1.74;90.62;100296.19;5050142;28;20197;-78
2021/12/08 01:31:56;;;;;;;56.57;29.83;;;;;;;1.73;91.28;100293.59;5047679;28;20277;-78
2021/12/08 01:34:21;;;;;;;57.43;30.90;;;;;;;1.77;91.71;100286.25;5031693;28;20285;-77
2021/12/08 01:36:46;;;;;;;63.27;31.13;;;;;;;1.77;90.81;100281.19;5029847;28;20228;-77
2021/12/08 01:39:12;;;;;;;57.37;30.37;;;;;;;1.77;90.76;100280.31;5034545;28;20245;-78
2021/12/08 01:41:39;;;;;;;58.70;28.30;;;;;;;1.80;90.83;100277.94;5052507;28;20236;-77
2021/12/08 01:46:52;;;;;;;54.30;28.60;;;;;;;1.80;91.29;100266.22;5041433;28;20245;-78
2021/12/08 01:49:17;;;;;;;59.30;29.13;;;;;;;1.81;91.40;100260.34;5032907;28;20206;-78
2021/12/08 01:51:42;;;;;;;59.40;30.10;;;;;;;1.84;91.41;100252.06;5041981;28;20190;-78
2021/12/08 01:54:08;;;;;;;56.93;30.60;;;;;;;1.89;91.08;100241.34;5034584;28;20190;-78
2021/12/08 01:56:35;;;;;;;53.50;27.83;;;;;;;1.88;90.14;100239.63;5032221;28;20270;-77
2021/12/08 01:59:04;;;;;;;53.87;27.70;;;;;;;1.89;90.12;100228.72;5031971;28;20182;-77
2021/12/08 02:01:30;;;;;;;51.43;26.30;;;;;;;1.92;90.84;100233.06;5031754;28;20200;-77
2021/12/08 02:03:56;;;;;;;55.27;29.17;;;;;;;1.92;90.88;100211.19;5032644;28;20268;-77
2021/12/08 02:06:22;;;;;;;50.87;27.80;;;;;;;1.96;90.74;100200.44;5032040;28;20206;-77
2021/12/08 02:08:51;;;;;;;48.37;27.10;;;;;;;1.96;89.73;100192.00;5045273;28;20794;-77
2021/12/08 02:11:16;;;;;;;49.23;26.17;;;;;;;1.97;89.65;100198.78;5031744;28;20182;-77
2021/12/08 02:13:41;;;;;;;46.70;25.67;;;;;;;1.99;89.79;100197.19;5048432;28;20308;-77
2021/12/08 02:16:11;;;;;;;47.37;25.57;;;;;;;2.01;89.18;100196.44;5050072;28;20189;-77
2021/12/08 02:18:37;;;;;;;46.63;25.83;;;;;;;1.99;89.64;100187.09;5034049;28;20685;-77
2021/12/08 02:21:21;;;;;;;45.37;26.37;;;;;;;2.01;90.05;100182.94;5051361;28;20282;-78
2021/12/08 02:23:47;;;;;;;45.03;25.07;;;;;;;2.03;89.52;100176.31;5049238;28;20221;-77
2021/12/08 02:26:12;;;;;;;48.20;26.20;;;;;;;2.05;89.15;100169.66;5051976;28;20209;-77
2021/12/08 02:28:38;;;;;;;47.83;25.77;;;;;;;2.06;89.21;100163.84;5050074;28;20193;-79
2021/12/08 02:31:07;;;;;;;44.50;23.70;;;;;;;2.04;89.32;100158.72;5051038;28;20185;-78
2021/12/08 02:47:29;;;;;;;41.70;23.97;;;;;;;2.02;89.58;100140.13;5049957;28;20186;-77
2021/12/08 02:49:56;;;;;;;44.17;23.23;;;;;;;2.01;88.98;100128.31;5032117;28;20607;-77
2021/12/08 02:52:21;;;;;;;43.30;23.30;;;;;;;2.00;89.59;100129.09;5031958;28;20241;-77
2021/12/08 02:54:51;;;;;;;43.37;24.17;;;;;;;2.02;89.04;100117.41;5039269;28;20288;-78
2021/12/08 02:57:19;;;;;;;43.37;23.70;;;;;;;1.99;88.33;100119.81;5052017;28;20209;-77
2021/12/08 02:59:46;;;;;;;39.27;23.20;;;;;;;2.01;88.23;100108.09;5037708;28;20190;-77
2021/12/08 03:02:13;;;;;;;42.57;23.30;;;;;;;2.00;88.45;100108.91;5023113;28;20202;-77
2021/12/08 03:04:38;;;;;;;43.63;23.17;;;;;;;1.99;89.00;100102.16;5035793;28;20218;-77
2021/12/08 03:07:05;;;;;;;41.13;22.83;;;;;;;1.99;88.67;100116.41;5037664;28;20205;-78
2021/12/08 03:09:31;;;;;;;40.87;23.60;;;;;;;1.97;89.05;100102.88;5050174;28;20597;-77
2021/12/08 03:11:59;;;;;;;43.10;23.70;;;;;;;2.01;88.41;100113.16;5054938;28;20189;-79
2021/12/08 03:14:25;;;;;;;43.03;23.00;;;;;;;1.99;88.64;100104.69;5053559;28;20209;-77
2021/12/08 03:16:56;;;;;;;41.37;22.53;;;;;;;2.02;88.31;100103.94;5040592;28;20186;-77
2021/12/08 03:19:23;;;;;;;40.70;22.60;;;;;;;2.00;87.59;100105.50;5054573;28;20185;-77
2021/12/08 03:21:49;;;;;;;39.30;21.67;;;;;;;2.00;88.39;100097.94;5056127;28;20185;-78
2021/12/08 03:27:31;;;;;;;41.63;22.80;;;;;;;2.01;88.45;100095.50;5040595;28;20218;-78
2021/12/08 03:29:41;;;;;;;38.20;20.57;;;;;;;2.00;87.62;100078.63;5036461;28;20221;-78
2021/12/08 03:32:13;;;;;;;34.50;21.30;;;;;;;2.02;88.36;100078.69;5055295;28;20219;-78
2021/12/08 03:34:43;;;;;;;37.40;21.00;;;;;;;2.04;87.42;100075.44;5055201;28;20178;-77
2021/12/08 03:37:09;;;;;;;40.00;20.90;;;;;;;2.05;86.58;100062.00;5053451;28;20185;-78
2021/12/08 03:39:39;;;;;;;37.57;21.70;;;;;;;2.07;86.14;100060.38;5054889;28;20178;-77
2021/12/08 03:42:05;;;;;;;37.53;20.90;;;;;;;2.09;86.95;100057.94;5052375;28;20568;-78
2021/12/08 03:44:31;;;;;;;37.17;20.53;;;;;;;2.08;86.86;100057.09;5037737;28;20194;-77
2021/12/08 03:47:01;;;;;;;36.50;21.20;;;;;;;2.08;86.43;100063.78;5040407;28;20196;-78
2021/12/08 03:49:27;;;;;;;38.43;20.70;;;;;;;2.09;86.64;100068.03;5039709;28;20199;-78
2021/12/08 03:51:58;;;;;;;37.93;21.37;;;;;;;2.09;86.93;100062.97;5033997;28;20636;-77
2021/12/08 03:54:23;;;;;;;38.67;19.90;;;;;;;2.12;86.49;100069.00;5035022;28;20229;-78
2021/12/08 03:56:49;;;;;;;38.10;20.77;;;;;;;2.11;86.34;100074.84;5035745;28;20183;-77
2021/12/08 03:59:14;;;;;;;37.27;20.33;;;;;;;2.12;85.77;100090.88;5037479;28;20191;-78
2021/12/08 04:01:40;;;;;;;37.13;20.83;;;;;;;2.13;86.10;100090.94;5035630;28;20217;-78
2021/12/08 04:04:08;;;;;;;39.17;21.03;;;;;;;2.13;86.27;100103.56;5037543;28;20221;-78
2021/12/08 04:06:44;;;;;;;37.03;22.13;;;;;;;2.15;86.13;100103.63;5053396;28;20259;-78
2021/12/08 04:09:17;;;;;;;34.97;20.07;;;;;;;2.14;86.17;100110.34;5033399;28;20719;-78
2021/12/08 04:11:45;;;;;;;37.60;21.20;;;;;;;2.16;85.78;100107.88;5033411;28;20171;-78
2021/12/08 04:14:16;;;;;;;35.37;20.03;;;;;;;2.12;86.08;100113.59;5033490;28;20252;-78
2021/12/08 04:16:50;;;;;;;32.40;20.00;;;;;;;2.15;85.66;100107.00;5049337;28;20213;-78
2021/12/08 04:19:16;;;;;;;39.93;21.40;;;;;;;2.17;85.62;100122.22;5052456;28;20278;-78
2021/12/08 04:21:43;;;;;;;38.20;20.90;;;;;;;2.16;86.29;100121.34;5056760;28;20194;-78
2021/12/08 04:24:09;;;;;;;38.57;19.90;;;;;;;2.16;86.14;100118.81;5032375;28;20193;-78
2021/12/08 04:26:49;;;;;;;35.63;20.43;;;;;;;2.19;86.16;100125.66;5032082;28;20213;-78
2021/12/08 04:29:16;;;;;;;34.40;19.67;;;;;;;2.22;84.92;100126.66;5031671;28;20564;-78
2021/12/08 04:31:43;;;;;;;36.10;19.37;;;;;;;2.24;85.41;100121.66;5031072;28;20583;-78
2021/12/08 04:34:16;;;;;;;37.13;21.07;;;;;;;2.27;85.35;100124.31;5045504;28;20217;-78
2021/12/08 04:36:46;;;;;;;36.50;19.27;;;;;;;2.26;85.60;100127.63;5034975;28;20198;-78
2021/12/08 04:39:19;;;;;;;29.57;18.03;;;;;;;2.32;83.87;100136.31;5031922;28;20695;-78
2021/12/08 04:41:51;;;;;;;30.57;16.60;;;;;;;2.35;84.51;100120.44;5030806;28;20692;-78
2021/12/08 04:52:33;;;;;;;27.50;17.30;;;;;;;2.44;83.47;100118.28;5050095;28;20255;-78
2021/12/08 05:03:25;;;;;;;32.83;19.07;;;;;;;2.38;84.54;100123.94;5031896;28;20206;-78
2021/12/08 05:06:06;;;;;;;33.87;19.13;;;;;;;2.28;85.88;100116.78;5040461;28;20678;-78
2021/12/08 05:08:41;;;;;;;34.60;19.97;;;;;;;2.20;86.56;100113.09;5036971;28;20595;-78
2021/12/08 05:11:13;;;;;;;36.83;21.00;;;;;;;2.14;87.57;100120.44;5052135;28;20291;-77
2021/12/08 05:13:39;;;;;;;38.37;22.07;;;;;;;2.08;88.09;100121.84;5048784;28;20259;-79
2021/12/08 05:16:05;;;;;;;43.33;23.80;;;;;;;2.02;89.12;100117.41;5035899;28;20179;-79
2021/12/08 05:18:36;;;;;;;38.90;21.60;;;;;;;1.94;89.65;100123.81;5049857;28;20651;-76
2021/12/08 05:21:10;;;;;;;39.23;23.23;;;;;;;1.90;89.54;100121.09;5050290;28;20192;-78
2021/12/08 05:23:44;;;;;;;43.73;23.80;;;;;;;1.92;89.31;100114.47;5050750;28;20710;-78
2021/12/08 05:26:17;;;;;;;43.20;23.87;;;;;;;1.92;89.76;100120.34;5051271;28;20190;-78
2021/12/08 05:28:46;;;;;;;41.53;24.20;;;;;;;1.84;89.74;100129.25;5043248;28;20194;-76
2021/12/08 05:31:21;;;;;;;43.33;24.37;;;;;;;1.85;89.93;100118.38;5031082;28;20194;-76
2021/12/08 05:33:47;;;;;;;46.00;24.83;;;;;;;1.79;89.98;100119.78;5029092;28;20216;-76
2021/12/08 05:36:14;;;;;;;43.10;25.03;;;;;;;1.73;91.24;100119.50;5030472;28;20263;-76
2021/12/08 05:38:41;;;;;;;49.23;25.93;;;;;;;1.72;90.58;100120.31;5029430;28;20190;-76
2021/12/08 05:41:18;;;;;;;45.70;26.90;;;;;;;1.69;91.64;100117.69;5030298;28;20220;-77
2021/12/08 05:43:45;;;;;;;47.17;24.83;;;;;;;1.63;91.42;100112.34;5035060;28;20205;-76
2021/12/08 05:46:13;;;;;;;50.37;25.93;;;;;;;1.63;92.25;100110.72;5048936;28;20210;-76
2021/12/08 05:48:39;;;;;;;51.10;25.30;;;;;;;1.59;91.19;100118.94;5048655;28;20251;-77
2021/12/08 05:51:10;;;;;;;51.43;26.33;;;;;;;1.60;92.04;100119.81;5050049;28;20642;-76
2021/12/08 05:53:38;;;;;;;47.77;24.97;;;;;;;1.54;91.62;100117.88;5049868;28;20636;-76
2021/12/08 05:56:05;;;;;;;55.43;28.67;;;;;;;1.49;92.70;100121.00;5048769;28;20174;-76
2021/12/08 05:58:31;;;;;;;54.93;27.43;;;;;;;1.53;91.93;100125.38;5049347;28;20277;-77
2021/12/08 06:00:57;;;;;;;51.90;26.20;;;;;;;1.47;92.92;100125.97;5032181;28;20265;-79
2021/12/08 06:03:22;;;;;;;58.97;29.37;;;;;;;1.44;92.52;100130.91;5048496;28;20681;-77
2021/12/08 06:05:50;;;;;;;55.53;28.57;;;;;;;1.44;92.15;100133.41;5049834;28;20221;-77
2021/12/08 06:08:17;;;;;;;52.30;27.70;;;;;;;1.44;92.79;100133.41;5050723;28;20280;-78
2021/12/08 06:10:44;;;;;;;54.37;28.70;;;;;;;1.38;92.90;100125.56;5049380;28;20194;-76
2021/12/08 06:13:12;;;;;;;56.67;26.97;;;;;;;1.38;92.53;100128.09;5049817;28;20683;-79
2021/12/08 06:15:40;;;;;;;55.77;29.23;;;;;;;1.35;93.63;100133.03;5049537;28;20188;-76
2021/12/08 06:18:06;;;;;;;56.93;27.73;;;;;;;1.30;93.39;100126.91;5048398;28;20177;-79
2021/12/08 06:20:32;;;;;;;57.60;29.23;;;;;;;1.30;93.45;100131.09;5049905;28;20181;-78
2021/12/08 06:22:58;;;;;;;61.83;28.37;;;;;;;1.29;93.51;100124.31;5048874;28;20213;-78
2021/12/08 06:25:26;;;;;;;59.57;30.43;;;;;;;1.27;93.83;100125.91;5049137;28;20216;-78
2021/12/08 06:27:51;;;;;;;62.23;29.73;;;;;;;1.24;93.08;100120.75;5048619;28;20245;-78
2021/12/08 06:30:23;;;;;;;64.60;31.43;;;;;;;1.20;94.39;100129.84;5050406;28;20301;-78
2021/12/08 06:32:49;;;;;;;61.67;30.70;;;;;;;1.18;93.67;100136.44;5050145;28;20212;-78
2021/12/08 06:35:21;;;;;;;64.53;30.63;;;;;;;1.17;94.36;100123.78;5034333;28;20182;-78
2021/12/08 06:37:47;;;;;;;61.53;30.33;;;;;;;1.16;93.84;100133.00;5030380;28;20175;-78
2021/12/08 06:40:27;;;;;;;64.60;32.80;;;;;;;1.18;93.64;100125.50;5031844;28;20229;-78
2021/12/08 06:42:55;;;;;;;62.67;29.87;;;;;;;1.18;93.63;100130.53;5037189;28;20205;-78
2021/12/08 06:45:30;;;;;;;60.07;31.23;;;;;;;1.15;93.79;100137.97;5050395;28;20210;-79
2021/12/08 06:47:58;;;;;;;61.43;30.13;;;;;;;1.13;94.34;100129.47;5045218;28;20189;-77
2021/12/08 06:50:31;;;;;;;64.87;32.53;;;;;;;1.16;93.79;100143.09;5029502;28;20190;-77
2021/12/08 06:52:57;;;;;;;63.33;33.83;;;;;;;1.18;94.58;100140.63;5028236;28;20272;-77
2021/12/08 06:55:28;;;;;;;66.13;33.33;;;;;;;1.19;93.85;100142.38;5028091;28;20205;-78
2021/12/08 06:58:00;;;;;;;65.37;31.77;;;;;;;1.16;94.75;100139.69;5029104;28;20201;-77
2021/12/08 07:00:56;;;;;;;62.07;31.63;;;;;;;1.18;94.35;100145.66;5027926;28;20238;-77
2021/12/08 07:03:31;;;;;;;64.47;30.67;;;;;;;1.19;93.56;100145.72;5028889;28;20249;-77
2021/12/08 07:06:12;;;;;;;61.50;31.57;;;;;;;1.23;94.29;100146.75;5027914;28;20588;-77
2021/12/08 07:08:46;;;;;;;55.97;28.90;;;;;;;1.24;94.07;100145.94;5029349;28;20559;-77
2021/12/08 07:11:16;;;;;;;58.33;28.20;;;;;;;1.24;93.56;100156.88;5029599;28;20278;-77
2021/12/08 07:13:41;;;;;;;52.70;28.70;;;;;;;1.28;94.04;100152.84;5028923;28;20210;-77
2021/12/08 07:16:14;;;;;;;57.20;30.20;;;;;;;1.26;93.90;100155.31;5041078;28;20250;-77
2021/12/08 07:18:53;;;;;;;52.60;28.80;;;;;;;1.27;94.13;100159.53;5048849;28;20177;-77
2021/12/08 07:21:22;;;;;;;55.93;29.13;;;;;;;1.28;94.00;100153.69;5049101;28;20189;-77
2021/12/08 07:23:56;;;;;;;56.90;29.27;;;;;;;1.29;94.00;100162.97;5013215;28;20240;-77
2021/12/08 07:26:25;;;;;;;56.10;28.77;;;;;;;1.30;94.18;100156.28;5037652;28;20415;-78
2021/12/08 07:28:53;;;;;;;51.40;27.37;;;;;;;1.31;93.24;100161.41;5036249;28;20186;-77
2021/12/08 07:31:27;;;;;;;55.03;27.47;;;;;;;1.31;93.18;100163.06;5027714;28;20233;-76
2021/12/08 07:33:54;;;;;;;47.50;26.40;;;;;;;1.33;93.95;100161.47;5039766;28;20274;-77
2021/12/08 07:36:22;;;;;;;48.70;26.40;;;;;;;1.32;93.92;100158.09;5047913;28;20592;-77
2021/12/08 07:38:53;;;;;;;57.87;28.53;;;;;;;1.36;94.05;100159.06;5048822;28;20174;-77
2021/12/08 07:41:33;;;;;;;51.40;27.93;;;;;;;1.36;93.50;100159.06;5042734;28;20201;-76
2021/12/08 07:44:04;;;;;;;48.47;26.20;;;;;;;1.36;93.30;100169.16;5035261;28;20300;-76
2021/12/08 07:46:35;;;;;;;48.87;25.93;;;;;;;1.37;94.19;100156.63;5028951;28;20614;-76
2021/12/08 07:49:10;;;;;;;54.23;26.87;;;;;;;1.39;93.65;100160.09;5030123;28;20163;-77
2021/12/08 07:51:52;;;;;;;46.00;26.17;;;;;;;1.42;94.01;100157.69;5032374;28;20186;-76
2021/12/08 07:54:19;;;;;;;47.87;26.47;;;;;;;1.49;93.20;100158.81;5032302;28;20171;-76
2021/12/08 07:56:48;;;;;;;46.00;25.23;;;;;;;1.47;93.42;100156.22;5032240;28;20210;-78
2021/12/08 07:59:16;;;;;;;42.63;25.73;;;;;;;1.49;93.33;100166.38;5030626;28;20197;-77
2021/12/08 08:01:45;;;;;;;46.80;26.00;;;;;;;1.50;93.15;100160.53;5032241;28;20201;-77
2021/12/08 08:04:13;;;;;;;42.73;24.43;;;;;;;1.51;93.05;100168.19;5049798;28;20249;-76
2021/12/08 08:06:42;;;;;;;42.20;24.20;;;;;;;1.55;92.69;100166.66;5051981;28;20679;-77
2021/12/08 08:09:14;;;;;;;43.57;25.37;;;;;;;1.56;92.87;100173.44;5051559;28;20197;-77
2021/12/08 08:11:42;;;;;;;43.90;23.97;;;;;;;1.56;93.19;100174.28;5051723;28;20182;-78
2021/12/08 08:14:11;;;;;;;44.47;23.40;;;;;;;1.56;92.76;100178.50;5051666;28;20205;-76
2021/12/08 08:16:38;;;;;;;39.10;23.53;;;;;;;1.59;93.04;100176.06;5037259;28;20182;-78
2021/12/08 08:19:11;;;;;;;36.90;22.83;;;;;;;1.60;92.44;100188.75;5032257;28;20177;-78
2021/12/08 08:21:41;;;;;;;42.07;24.23;;;;;;;1.61;93.05;100182.06;5038258;28;20182;-78
2021/12/08 08:24:07;;;;;;;40.20;23.93;;;;;;;1.60;92.82;100183.72;5052027;28;20756;-78
2021/12/08 08:26:34;;;;;;;40.70;23.67;;;;;;;1.62;93.28;100184.66;5052332;28;20686;-78
2021/12/08 08:29:00;;;;;;;40.37;24.60;;;;;;;1.61;92.96;100187.97;5033804;28;20203;-76
2021/12/08 08:31:34;;;;;;;39.77;23.90;;;;;;;1.65;92.56;100177.22;5051697;28;20824;-76
2021/12/08 08:34:00;;;;;;;39.27;23.40;;;;;;;1.69;92.67;100198.41;5050570;28;20210;-78
2021/12/08 08:36:32;;;;;;;42.87;24.43;;;;;;;1.68;92.68;100181.53;5052301;28;20288;-78
2021/12/08 08:39:15;;;;;;;40.70;24.67;;;;;;;1.67;92.81;100187.38;5051826;28;20181;-79
2021/12/08 08:41:44;;;;;;;38.93;24.63;;;;;;;1.70;93.32;100185.84;5051706;28;20174;-78
2021/12/08 08:44:16;;;;;;;41.70;24.60;;;;;;;1.76;93.43;100190.28;5050384;28;20627;-78
2021/12/08 08:46:45;;;;;;;37.73;23.33;;;;;;;1.76;92.72;100187.78;5051707;28;20746;-78
2021/12/08 08:49:15;;;;;;;37.87;23.53;;;;;;;1.79;92.92;100201.38;5041745;28;20202;-77
2021/12/08 08:51:48;;;;;;;42.10;23.27;;;;;;;1.74;92.17;100194.44;5031646;28;20269;-77
2021/12/08 08:54:22;;;;;;;38.17;23.27;;;;;;;1.77;92.18;100187.84;5031320;28;20273;-76
2021/12/08 08:56:58;;;;;;;36.07;22.53;;;;;;;1.81;92.17;100188.81;5030039;28;20182;-76
2021/12/08 08:59:30;;;;;;;39.50;23.77;;;;;;;1.83;92.17;100194.81;5035768;28;20180;-77
2021/12/08 09:01:57;;;;;;;38.90;23.53;;;;;;;1.85;93.05;100195.72;5051023;28;20178;-77
2021/12/08 09:04:32;;;;;;;41.57;23.50;;;;;;;1.85;93.38;100191.56;5051126;28;20240;-77
2021/12/08 09:07:02;;;;;;;40.20;23.27;;;;;;;1.85;92.68;100194.09;5051070;28;20185;-76
2021/12/08 09:09:34;;;;;;;38.50;24.10;;;;;;;1.86;92.76;100202.50;5050981;28;20234;-76
2021/12/08 09:12:18;;;;;;;39.23;23.57;;;;;;;1.91;93.07;100204.44;5050144;28;20557;-77
2021/12/08 09:14:52;;;;;;;36.43;23.40;;;;;;;1.93;92.98;100197.78;5050800;28;20185;-77
2021/12/08 09:17:23;;;;;;;40.43;21.87;;;;;;;1.94;93.06;100191.09;5051283;28;20555;-77
2021/12/08 09:20:05;;;;;;;39.10;22.27;;;;;;;1.95;92.95;100191.16;5049528;28;20186;-78
2021/12/08 09:22:40;;;;;;;40.93;23.30;;;;;;;1.98;92.52;100203.03;5050818;28;20217;-79
2021/12/08 09:25:12;;;;;;;37.00;22.10;;;;;;;1.99;92.76;100205.63;5050230;28;20217;-77
2021/12/08 09:27:45;;;;;;;37.90;22.67;;;;;;;2.03;92.29;100204.97;5046268;28;20621;-78
2021/12/08 09:30:23;;;;;;;38.83;23.23;;;;;;;2.01;92.78;100213.25;5049930;28;20236;-77
2021/12/08 09:32:53;;;;;;;37.90;22.30;;;;;;;2.04;92.37;100216.78;5032144;28;20706;-78
2021/12/08 09:35:27;;;;;;;37.03;23.43;;;;;;;2.05;92.78;100218.50;5031363;28;20167;-78
2021/12/08 09:38:02;;;;;;;34.70;21.37;;;;;;;2.08;92.31;100207.66;5033304;28;20179;-76
2021/12/08 09:40:37;;;;;;;34.47;22.30;;;;;;;2.10;91.93;100218.69;5032344;28;20193;-77
2021/12/08 09:43:12;;;;;;;36.57;22.10;;;;;;;2.10;92.31;100227.13;5019346;28;20324;-77
2021/12/08 09:45:46;;;;;;;35.30;21.63;;;;;;;2.07;92.58;100219.41;5046711;28;20236;-77
2021/12/08 09:48:12;;;;;;;38.60;22.03;;;;;;;2.12;91.81;100228.03;5049152;28;20187;-77
2021/12/08 09:50:38;;;;;;;36.23;21.43;;;;;;;2.16;92.58;100218.97;5032336;28;20219;-79
2021/12/08 09:53:06;;;;;;;39.10;21.50;;;;;;;2.22;92.76;100221.72;5050190;28;20232;-79
2021/12/08 09:55:32;;;;;;;32.93;20.60;;;;;;;2.21;92.23;100214.97;5049494;28;20635;-76
2021/12/08 09:57:57;;;;;;;33.17;21.33;;;;;;;2.27;91.91;100213.56;5050303;28;20201;-79
2021/12/08 10:00:30;;;;;;;35.50;21.27;;;;;;;2.30;92.37;100211.16;5050951;28;20182;-80
2021/12/08 10:03:00;;;;;;;33.73;20.50;;;;;;;2.32;91.54;100208.69;5048707;28;20702;-80
2021/12/08 10:05:30;;;;;;;35.13;21.27;;;;;;;2.35;91.57;100211.34;5048700;28;20595;-78
2021/12/08 10:07:58;;;;;;;33.03;19.47;;;;;;;2.38;92.00;100207.28;5050369;28;20216;-77
2021/12/08 10:10:24;;;;;;;31.77;20.20;;;;;;;2.37;90.98;100208.09;5050281;28;20205;-78
2021/12/08 10:12:51;;;;;;;33.27;19.73;;;;;;;2.44;91.69;100202.47;5049972;28;20237;-77
2021/12/08 10:15:20;;;;;;;34.10;20.27;;;;;;;2.45;90.83;100201.69;5048354;28;20185;-77
2021/12/08 10:17:46;;;;;;;32.70;19.07;;;;;;;2.41;91.44;100202.38;5050096;28;20204;-77
2021/12/08 10:20:26;;;;;;;34.70;19.70;;;;;;;2.44;91.35;100199.09;5049492;28;20190;-77
2021/12/08 10:23:13;;;;;;;29.83;19.03;;;;;;;2.44;90.64;100192.38;5047912;28;20231;-77
2021/12/08 10:25:44;;;;;;;34.77;20.57;;;;;;;2.47;91.71;100201.72;5049598;28;20300;-77
2021/12/08 10:28:19;;;;;;;31.97;19.67;;;;;;;2.49;91.33;100206.03;5049673;28;20177;-79
2021/12/08 10:31:01;;;;;;;32.37;19.83;;;;;;;2.49;90.84;100205.19;5023390;28;20184;-77
2021/12/08 10:34:25;;;;;;;34.23;19.93;;;;;;;2.51;90.80;100216.22;5047794;28;20391;-80
2021/12/08 10:39:08;;;;;;;31.77;18.03;;;;;;;2.69;90.95;100202.66;5049211;28;20254;-79
2021/12/08 10:41:45;;;;;;;31.03;18.97;;;;;;;2.76;90.70;100206.31;5058121;28;20450;-80
2021/12/08 10:44:11;;;;;;;34.30;20.20;;;;;;;2.73;89.31;100202.00;5055403;28;20188;-79
2021/12/08 10:46:38;;;;;;;30.57;19.20;;;;;;;2.77;89.90;100197.91;5050093;28;20210;-79
2021/12/08 10:49:19;;;;;;;33.57;19.97;;;;;;;2.82;90.27;100184.66;5049383;28;20185;-80
2021/12/08 10:54:31;;;;;;;36.47;23.97;;;;;;;2.80;89.96;100175.31;5051546;28;20480;-80
2021/12/08 10:57:00;;;;;;;29.70;19.47;;;;;;;2.83;89.96;100180.44;5051386;28;20256;-80
2021/12/08 10:59:28;;;;;;;35.23;24.50;;;;;;;2.85;89.84;100184.75;5052288;28;20205;-80
2021/12/08 11:01:59;;;;;;;29.90;19.67;;;;;;;2.87;90.27;100188.22;5050302;28;20199;-80
2021/12/08 11:04:30;;;;;;;29.80;17.70;;;;;;;2.89;89.30;100184.09;5050218;28;20199;-78
2021/12/08 11:07:04;;;;;;;32.03;19.77;;;;;;;2.89;89.50;100168.91;5048727;28;20221;-78
2021/12/08 11:09:39;;;;;;;36.77;21.57;;;;;;;2.87;89.42;100178.13;5048481;28;20186;-78
2021/12/08 11:12:05;;;;;;;54.23;33.13;;;;;;;2.87;89.46;100185.69;5047300;28;20718;-78
2021/12/08 11:14:42;;;;;;;50.80;30.90;;;;;;;2.86;89.96;100194.09;5047458;28;20186;-78
2021/12/08 11:17:29;;;;;;;34.07;19.20;;;;;;;2.85;89.52;100204.13;5048823;28;20166;-78
2021/12/08 11:20:15;;;;;;;35.33;19.90;;;;;;;2.83;89.44;100201.53;5048556;28;20319;-76
2021/12/08 11:22:43;;;;;;;30.90;18.90;;;;;;;2.87;90.12;100202.53;5049106;28;20205;-77
2021/12/08 11:25:21;;;;;;;30.87;18.63;;;;;;;2.89;89.68;100196.72;5054473;28;20304;-80
2021/12/08 11:27:47;;;;;;;35.23;19.07;;;;;;;2.89;89.91;100173.97;5048328;28;20266;-81
2021/12/08 11:30:14;;;;;;;32.20;18.97;;;;;;;2.86;89.68;100170.47;5055982;28;20181;-80
2021/12/08 11:32:40;;;;;;;34.27;19.87;;;;;;;2.90;90.21;100174.84;5037876;28;20205;-80
2021/12/08 11:35:19;;;;;;;30.80;19.80;;;;;;;2.88;89.95;100184.88;5037230;28;20621;-80
2021/12/08 11:37:44;;;;;;;33.93;19.60;;;;;;;2.91;90.33;100185.03;5053939;28;20180;-79
2021/12/08 11:40:16;;;;;;;31.30;19.50;;;;;;;2.87;89.76;100195.81;5054025;28;20552;-78
2021/12/08 11:42:42;;;;;;;36.53;20.10;;;;;;;2.85;89.75;100204.13;5052637;28;20270;-78
2021/12/08 11:45:13;;;;;;;32.03;19.37;;;;;;;2.85;89.22;100199.94;5053106;28;20213;-77
2021/12/08 11:47:40;;;;;;;41.90;25.53;;;;;;;2.90;89.40;100210.25;5054855;28;20245;-79
2021/12/08 11:50:12;;;;;;;49.13;28.40;;;;;;;2.87;89.47;100221.09;5054966;28;20265;-78
2021/12/08 11:52:37;;;;;;;44.07;25.23;;;;;;;2.88;89.80;100217.75;5033630;28;20218;-78
2021/12/08 11:55:07;;;;;;;34.57;21.47;;;;;;;2.90;90.09;100211.06;5034230;28;20185;-78
2021/12/08 11:57:37;;;;;;;36.37;21.47;;;;;;;2.90;90.14;100223.72;5048071;28;20834;-78
2021/12/08 12:00:19;;;;;;;34.17;20.77;;;;;;;2.89;89.88;100224.53;5051059;28;20193;-78
2021/12/08 12:03:14;;;;;;;31.10;18.67;;;;;;;2.93;90.00;100213.72;5052232;28;20632;-79
2021/12/08 12:05:47;;;;;;;36.43;18.37;;;;;;;2.92;90.41;100218.72;5030462;28;20202;-79
2021/12/08 12:08:15;;;;;;;53.20;34.13;;;;;;;2.90;90.12;100215.28;5032570;28;20194;-79
2021/12/08 12:10:46;;;;;;;35.80;20.87;;;;;;;2.94;89.74;100215.44;5032180;28;20544;-76
2021/12/08 12:13:13;;;;;;;43.47;27.40;;;;;;;2.93;89.40;100213.72;5031441;28;20937;-77